sensor_id;sensor_type;location;lat;lon;timestamp;P1;durP1;ratioP1;P2;durP2;ratioP2
70800;SDS011;59616;52.170;5.386;2023-07-22T00:01:12;16.92;;;5.68;;
70800;SDS011;59616;52.170;5.386;2023-07-22T00:03:39;16.13;;;6.28;;
70800;SDS011;59616;52.170;5.386;2023-07-22T00:06:07;16.58;;;5.82;;
70800;SDS011;59616;52.170;5.386;2023-07-22T00:08:35;13.57;;;5.65;;
70800;SDS011;59616;52.170;5.386;2023-07-22T00:11:06;17.27;;;6.28;;
70800;SDS011;59616;52.170;5.386;2023-07-22T00:13:33;17.60;;;6.55;;
70800;SDS011;59616;52.170;5.386;2023-07-22T00:16:01;17.77;;;6.93;;
70800;SDS011;59616;52.170;5.386;2023-07-22T00:18:34;15.77;;;6.00;;
70800;SDS011;59616;52.170;5.386;2023-07-22T00:21:01;17.10;;;6.60;;
70800;SDS011;59616;52.170;5.386;2023-07-22T00:23:28;19.52;;;6.85;;
70800;SDS011;59616;52.170;5.386;2023-07-22T00:25:56;20.60;;;6.53;;
70800;SDS011;59616;52.170;5.386;2023-07-22T00:28:23;19.88;;;7.03;;
70800;SDS011;59616;52.170;5.386;2023-07-22T00:30:50;20.15;;;7.10;;
70800;SDS011;59616;52.170;5.386;2023-07-22T00:33:19;15.77;;;5.97;;
70800;SDS011;59616;52.170;5.386;2023-07-22T00:35:47;18.10;;;6.47;;
70800;SDS011;59616;52.170;5.386;2023-07-22T00:38:18;16.10;;;6.03;;
70800;SDS011;59616;52.170;5.386;2023-07-22T00:40:46;16.63;;;6.22;;
70800;SDS011;59616;52.170;5.386;2023-07-22T00:43:13;15.93;;;5.88;;
70800;SDS011;59616;52.170;5.386;2023-07-22T00:45:41;16.05;;;6.22;;
70800;SDS011;59616;52.170;5.386;2023-07-22T00:48:09;18.45;;;6.22;;
70800;SDS011;59616;52.170;5.386;2023-07-22T00:50:36;19.55;;;6.45;;
70800;SDS011;59616;52.170;5.386;2023-07-22T00:53:05;19.83;;;7.10;;
70800;SDS011;59616;52.170;5.386;2023-07-22T00:55:32;16.70;;;6.25;;
70800;SDS011;59616;52.170;5.386;2023-07-22T00:58:00;17.17;;;6.65;;
70800;SDS011;59616;52.170;5.386;2023-07-22T01:00:27;16.77;;;6.95;;
70800;SDS011;59616;52.170;5.386;2023-07-22T01:02:55;17.15;;;6.50;;
70800;SDS011;59616;52.170;5.386;2023-07-22T01:05:22;19.58;;;6.70;;
70800;SDS011;59616;52.170;5.386;2023-07-22T01:07:50;19.42;;;6.75;;
70800;SDS011;59616;52.170;5.386;2023-07-22T01:10:17;16.73;;;6.25;;
70800;SDS011;59616;52.170;5.386;2023-07-22T01:12:46;17.65;;;6.53;;
70800;SDS011;59616;52.170;5.386;2023-07-22T01:15:13;17.58;;;7.07;;
70800;SDS011;59616;52.170;5.386;2023-07-22T01:17:41;16.27;;;6.32;;
70800;SDS011;59616;52.170;5.386;2023-07-22T01:20:08;20.48;;;7.05;;
70800;SDS011;59616;52.170;5.386;2023-07-22T01:22:36;16.92;;;6.43;;
70800;SDS011;59616;52.170;5.386;2023-07-22T01:25:03;19.67;;;6.88;;
70800;SDS011;59616;52.170;5.386;2023-07-22T01:27:31;16.80;;;6.60;;
70800;SDS011;59616;52.170;5.386;2023-07-22T01:29:58;19.65;;;7.38;;
70800;SDS011;59616;52.170;5.386;2023-07-22T01:32:28;18.05;;;6.20;;
70800;SDS011;59616;52.170;5.386;2023-07-22T01:34:55;17.83;;;7.05;;
70800;SDS011;59616;52.170;5.386;2023-07-22T01:37:23;17.75;;;6.65;;
70800;SDS011;59616;52.170;5.386;2023-07-22T01:39:51;20.52;;;7.18;;
70800;SDS011;59616;52.170;5.386;2023-07-22T01:42:19;18.13;;;6.85;;
70800;SDS011;59616;52.170;5.386;2023-07-22T01:44:46;18.02;;;6.72;;
70800;SDS011;59616;52.170;5.386;2023-07-22T01:47:13;16.15;;;6.82;;
70800;SDS011;59616;52.170;5.386;2023-07-22T01:49:41;19.48;;;7.20;;
70800;SDS011;59616;52.170;5.386;2023-07-22T01:52:08;18.70;;;7.32;;
70800;SDS011;59616;52.170;5.386;2023-07-22T01:54:35;18.70;;;7.53;;
70800;SDS011;59616;52.170;5.386;2023-07-22T01:57:03;18.48;;;7.35;;
70800;SDS011;59616;52.170;5.386;2023-07-22T01:59:30;20.27;;;7.55;;
70800;SDS011;59616;52.170;5.386;2023-07-22T02:01:57;18.63;;;6.90;;
70800;SDS011;59616;52.170;5.386;2023-07-22T02:04:25;19.20;;;7.13;;
70800;SDS011;59616;52.170;5.386;2023-07-22T02:06:52;20.40;;;6.85;;
70800;SDS011;59616;52.170;5.386;2023-07-22T02:09:20;19.75;;;7.32;;
70800;SDS011;59616;52.170;5.386;2023-07-22T02:11:47;17.27;;;6.97;;
70800;SDS011;59616;52.170;5.386;2023-07-22T02:14:15;20.10;;;7.20;;
70800;SDS011;59616;52.170;5.386;2023-07-22T02:16:42;18.83;;;7.28;;
70800;SDS011;59616;52.170;5.386;2023-07-22T02:19:09;20.08;;;6.72;;
70800;SDS011;59616;52.170;5.386;2023-07-22T02:21:40;19.92;;;7.43;;
70800;SDS011;59616;52.170;5.386;2023-07-22T02:24:08;19.92;;;6.75;;
70800;SDS011;59616;52.170;5.386;2023-07-22T02:26:35;19.25;;;7.35;;
70800;SDS011;59616;52.170;5.386;2023-07-22T02:29:03;18.13;;;7.03;;
70800;SDS011;59616;52.170;5.386;2023-07-22T02:31:30;23.35;;;7.85;;
70800;SDS011;59616;52.170;5.386;2023-07-22T02:33:57;21.63;;;8.00;;
70800;SDS011;59616;52.170;5.386;2023-07-22T02:36:25;21.02;;;7.72;;
70800;SDS011;59616;52.170;5.386;2023-07-22T02:38:52;19.85;;;7.40;;
70800;SDS011;59616;52.170;5.386;2023-07-22T02:41:20;21.00;;;8.05;;
70800;SDS011;59616;52.170;5.386;2023-07-22T02:43:48;19.90;;;7.15;;
70800;SDS011;59616;52.170;5.386;2023-07-22T02:46:15;19.83;;;7.80;;
70800;SDS011;59616;52.170;5.386;2023-07-22T02:48:42;19.73;;;7.53;;
70800;SDS011;59616;52.170;5.386;2023-07-22T02:51:10;22.00;;;7.40;;
70800;SDS011;59616;52.170;5.386;2023-07-22T02:53:37;20.33;;;7.45;;
70800;SDS011;59616;52.170;5.386;2023-07-22T02:56:05;18.33;;;6.97;;
70800;SDS011;59616;52.170;5.386;2023-07-22T02:58:37;18.95;;;6.93;;
70800;SDS011;59616;52.170;5.386;2023-07-22T03:01:04;22.30;;;7.80;;
70800;SDS011;59616;52.170;5.386;2023-07-22T03:03:35;18.88;;;7.38;;
70800;SDS011;59616;52.170;5.386;2023-07-22T03:06:02;20.95;;;7.68;;
70800;SDS011;59616;52.170;5.386;2023-07-22T03:08:30;19.60;;;7.25;;
70800;SDS011;59616;52.170;5.386;2023-07-22T03:10:58;18.15;;;6.88;;
70800;SDS011;59616;52.170;5.386;2023-07-22T03:13:25;21.75;;;8.00;;
70800;SDS011;59616;52.170;5.386;2023-07-22T03:15:56;20.80;;;7.55;;
70800;SDS011;59616;52.170;5.386;2023-07-22T03:18:25;22.63;;;8.27;;
70800;SDS011;59616;52.170;5.386;2023-07-22T03:20:52;21.25;;;7.47;;
70800;SDS011;59616;52.170;5.386;2023-07-22T03:23:19;20.65;;;7.40;;
70800;SDS011;59616;52.170;5.386;2023-07-22T03:25:47;23.65;;;7.30;;
70800;SDS011;59616;52.170;5.386;2023-07-22T03:28:14;19.77;;;7.57;;
70800;SDS011;59616;52.170;5.386;2023-07-22T03:30:43;21.45;;;7.68;;
70800;SDS011;59616;52.170;5.386;2023-07-22T03:33:10;24.33;;;8.30;;
70800;SDS011;59616;52.170;5.386;2023-07-22T03:35:37;20.00;;;7.20;;
70800;SDS011;59616;52.170;5.386;2023-07-22T03:38:07;20.83;;;7.82;;
70800;SDS011;59616;52.170;5.386;2023-07-22T03:40:34;20.52;;;7.70;;
70800;SDS011;59616;52.170;5.386;2023-07-22T03:43:02;20.98;;;7.60;;
70800;SDS011;59616;52.170;5.386;2023-07-22T03:45:29;19.70;;;7.47;;
70800;SDS011;59616;52.170;5.386;2023-07-22T03:47:57;23.75;;;8.02;;
70800;SDS011;59616;52.170;5.386;2023-07-22T03:50:25;23.90;;;8.40;;
70800;SDS011;59616;52.170;5.386;2023-07-22T03:52:52;20.42;;;7.65;;
70800;SDS011;59616;52.170;5.386;2023-07-22T03:55:20;21.83;;;7.80;;
70800;SDS011;59616;52.170;5.386;2023-07-22T03:57:47;19.23;;;7.57;;
70800;SDS011;59616;52.170;5.386;2023-07-22T04:00:15;22.08;;;8.13;;
70800;SDS011;59616;52.170;5.386;2023-07-22T04:02:42;18.67;;;7.30;;
70800;SDS011;59616;52.170;5.386;2023-07-22T04:05:10;18.80;;;6.70;;
70800;SDS011;59616;52.170;5.386;2023-07-22T04:07:37;22.80;;;7.10;;
70800;SDS011;59616;52.170;5.386;2023-07-22T04:10:05;20.38;;;7.07;;
70800;SDS011;59616;52.170;5.386;2023-07-22T04:12:32;18.15;;;6.97;;
70800;SDS011;59616;52.170;5.386;2023-07-22T04:15:00;19.75;;;7.35;;
70800;SDS011;59616;52.170;5.386;2023-07-22T04:17:27;18.42;;;6.63;;
70800;SDS011;59616;52.170;5.386;2023-07-22T04:19:55;19.10;;;6.97;;
70800;SDS011;59616;52.170;5.386;2023-07-22T04:22:22;20.10;;;6.68;;
70800;SDS011;59616;52.170;5.386;2023-07-22T04:24:50;18.83;;;6.95;;
70800;SDS011;59616;52.170;5.386;2023-07-22T04:27:19;18.52;;;6.90;;
70800;SDS011;59616;52.170;5.386;2023-07-22T04:29:46;22.30;;;7.70;;
70800;SDS011;59616;52.170;5.386;2023-07-22T04:32:14;18.27;;;6.75;;
70800;SDS011;59616;52.170;5.386;2023-07-22T04:34:41;22.67;;;7.03;;
70800;SDS011;59616;52.170;5.386;2023-07-22T04:37:08;18.63;;;6.55;;
70800;SDS011;59616;52.170;5.386;2023-07-22T04:39:36;18.75;;;7.13;;
70800;SDS011;59616;52.170;5.386;2023-07-22T04:42:04;19.52;;;7.00;;
70800;SDS011;59616;52.170;5.386;2023-07-22T04:44:31;21.67;;;7.85;;
70800;SDS011;59616;52.170;5.386;2023-07-22T04:46:59;27.13;;;7.85;;
70800;SDS011;59616;52.170;5.386;2023-07-22T04:49:26;21.50;;;7.45;;
70800;SDS011;59616;52.170;5.386;2023-07-22T04:51:53;22.33;;;8.18;;
70800;SDS011;59616;52.170;5.386;2023-07-22T04:54:21;23.65;;;7.90;;
70800;SDS011;59616;52.170;5.386;2023-07-22T04:56:48;21.33;;;8.07;;
70800;SDS011;59616;52.170;5.386;2023-07-22T04:59:15;22.75;;;8.60;;
70800;SDS011;59616;52.170;5.386;2023-07-22T05:01:42;23.30;;;8.75;;
70800;SDS011;59616;52.170;5.386;2023-07-22T05:04:10;25.58;;;8.82;;
70800;SDS011;59616;52.170;5.386;2023-07-22T05:06:37;23.42;;;8.23;;
70800;SDS011;59616;52.170;5.386;2023-07-22T05:09:04;24.95;;;9.20;;
70800;SDS011;59616;52.170;5.386;2023-07-22T05:11:32;27.40;;;8.60;;
70800;SDS011;59616;52.170;5.386;2023-07-22T05:13:59;24.40;;;9.48;;
70800;SDS011;59616;52.170;5.386;2023-07-22T05:16:26;23.65;;;8.18;;
70800;SDS011;59616;52.170;5.386;2023-07-22T05:18:54;24.10;;;8.13;;
70800;SDS011;59616;52.170;5.386;2023-07-22T05:21:21;30.45;;;8.82;;
70800;SDS011;59616;52.170;5.386;2023-07-22T05:23:49;26.15;;;9.57;;
70800;SDS011;59616;52.170;5.386;2023-07-22T05:26:16;26.98;;;9.48;;
70800;SDS011;59616;52.170;5.386;2023-07-22T05:28:43;26.60;;;8.93;;
70800;SDS011;59616;52.170;5.386;2023-07-22T05:31:10;27.33;;;9.48;;
70800;SDS011;59616;52.170;5.386;2023-07-22T05:33:38;30.38;;;10.15;;
70800;SDS011;59616;52.170;5.386;2023-07-22T05:36:05;27.17;;;9.38;;
70800;SDS011;59616;52.170;5.386;2023-07-22T05:38:33;35.15;;;10.85;;
70800;SDS011;59616;52.170;5.386;2023-07-22T05:41:00;26.38;;;10.07;;
70800;SDS011;59616;52.170;5.386;2023-07-22T05:43:27;25.50;;;10.05;;
70800;SDS011;59616;52.170;5.386;2023-07-22T05:45:54;26.98;;;9.75;;
70800;SDS011;59616;52.170;5.386;2023-07-22T05:48:22;25.08;;;8.68;;
70800;SDS011;59616;52.170;5.386;2023-07-22T05:50:49;31.38;;;10.38;;
70800;SDS011;59616;52.170;5.386;2023-07-22T05:53:16;26.15;;;9.65;;
70800;SDS011;59616;52.170;5.386;2023-07-22T05:55:43;27.67;;;9.98;;
70800;SDS011;59616;52.170;5.386;2023-07-22T05:58:17;26.77;;;9.65;;
70800;SDS011;59616;52.170;5.386;2023-07-22T06:00:45;28.95;;;10.38;;
70800;SDS011;59616;52.170;5.386;2023-07-22T06:03:17;26.23;;;9.80;;
70800;SDS011;59616;52.170;5.386;2023-07-22T06:05:45;31.90;;;10.60;;
70800;SDS011;59616;52.170;5.386;2023-07-22T06:08:13;28.08;;;10.25;;
70800;SDS011;59616;52.170;5.386;2023-07-22T06:10:40;27.33;;;9.40;;
70800;SDS011;59616;52.170;5.386;2023-07-22T06:13:07;26.38;;;9.38;;
70800;SDS011;59616;52.170;5.386;2023-07-22T06:15:35;26.75;;;10.02;;
70800;SDS011;59616;52.170;5.386;2023-07-22T06:18:02;30.60;;;10.18;;
70800;SDS011;59616;52.170;5.386;2023-07-22T06:20:29;27.83;;;10.23;;
70800;SDS011;59616;52.170;5.386;2023-07-22T06:22:57;28.60;;;9.70;;
70800;SDS011;59616;52.170;5.386;2023-07-22T06:25:24;25.90;;;9.70;;
70800;SDS011;59616;52.170;5.386;2023-07-22T06:27:51;29.92;;;10.30;;
70800;SDS011;59616;52.170;5.386;2023-07-22T06:30:20;28.40;;;10.23;;
70800;SDS011;59616;52.170;5.386;2023-07-22T06:32:48;25.88;;;9.57;;
70800;SDS011;59616;52.170;5.386;2023-07-22T06:35:15;24.52;;;10.00;;
70800;SDS011;59616;52.170;5.386;2023-07-22T06:37:42;29.15;;;9.95;;
70800;SDS011;59616;52.170;5.386;2023-07-22T06:40:09;28.20;;;9.75;;
70800;SDS011;59616;52.170;5.386;2023-07-22T06:42:37;25.40;;;9.55;;
70800;SDS011;59616;52.170;5.386;2023-07-22T06:45:04;27.25;;;10.35;;
70800;SDS011;59616;52.170;5.386;2023-07-22T06:47:32;27.88;;;10.48;;
70800;SDS011;59616;52.170;5.386;2023-07-22T06:49:59;28.88;;;10.27;;
70800;SDS011;59616;52.170;5.386;2023-07-22T06:52:27;27.30;;;10.40;;
70800;SDS011;59616;52.170;5.386;2023-07-22T06:54:54;29.65;;;10.68;;
70800;SDS011;59616;52.170;5.386;2023-07-22T06:57:21;27.95;;;9.70;;
70800;SDS011;59616;52.170;5.386;2023-07-22T06:59:49;26.05;;;10.23;;
70800;SDS011;59616;52.170;5.386;2023-07-22T07:02:17;26.80;;;9.43;;
70800;SDS011;59616;52.170;5.386;2023-07-22T07:04:44;27.52;;;9.63;;
70800;SDS011;59616;52.170;5.386;2023-07-22T07:07:12;27.58;;;9.45;;
70800;SDS011;59616;52.170;5.386;2023-07-22T07:09:39;24.77;;;9.82;;
70800;SDS011;59616;52.170;5.386;2023-07-22T07:12:07;23.20;;;8.68;;
70800;SDS011;59616;52.170;5.386;2023-07-22T07:14:34;24.58;;;9.73;;
70800;SDS011;59616;52.170;5.386;2023-07-22T07:17:02;25.15;;;8.90;;
70800;SDS011;59616;52.170;5.386;2023-07-22T07:19:29;24.33;;;9.35;;
70800;SDS011;59616;52.170;5.386;2023-07-22T07:21:56;26.98;;;9.70;;
70800;SDS011;59616;52.170;5.386;2023-07-22T07:24:23;26.77;;;9.45;;
70800;SDS011;59616;52.170;5.386;2023-07-22T07:26:53;28.27;;;10.57;;
70800;SDS011;59616;52.170;5.386;2023-07-22T07:29:20;27.20;;;9.95;;
70800;SDS011;59616;52.170;5.386;2023-07-22T07:32:07;25.67;;;10.18;;
70800;SDS011;59616;52.170;5.386;2023-07-22T07:34:35;25.95;;;9.80;;
70800;SDS011;59616;52.170;5.386;2023-07-22T07:37:02;22.60;;;9.10;;
70800;SDS011;59616;52.170;5.386;2023-07-22T07:39:29;24.15;;;9.40;;
70800;SDS011;59616;52.170;5.386;2023-07-22T07:41:56;28.25;;;9.70;;
70800;SDS011;59616;52.170;5.386;2023-07-22T07:44:24;27.13;;;10.23;;
70800;SDS011;59616;52.170;5.386;2023-07-22T07:46:51;27.52;;;9.73;;
70800;SDS011;59616;52.170;5.386;2023-07-22T07:49:18;22.58;;;8.75;;
70800;SDS011;59616;52.170;5.386;2023-07-22T07:51:46;25.73;;;9.27;;
70800;SDS011;59616;52.170;5.386;2023-07-22T07:54:12;23.83;;;10.02;;
70800;SDS011;59616;52.170;5.386;2023-07-22T07:56:40;21.15;;;8.68;;
70800;SDS011;59616;52.170;5.386;2023-07-22T07:59:07;29.17;;;9.27;;
70800;SDS011;59616;52.170;5.386;2023-07-22T08:01:35;20.83;;;8.63;;
70800;SDS011;59616;52.170;5.386;2023-07-22T08:04:08;22.30;;;9.13;;
70800;SDS011;59616;52.170;5.386;2023-07-22T08:06:35;24.58;;;8.18;;
70800;SDS011;59616;52.170;5.386;2023-07-22T08:09:04;20.63;;;8.55;;
70800;SDS011;59616;52.170;5.386;2023-07-22T08:11:31;21.40;;;8.05;;
70800;SDS011;59616;52.170;5.386;2023-07-22T08:13:59;20.58;;;7.85;;
70800;SDS011;59616;52.170;5.386;2023-07-22T08:16:28;20.27;;;8.05;;
70800;SDS011;59616;52.170;5.386;2023-07-22T08:18:55;24.00;;;8.05;;
70800;SDS011;59616;52.170;5.386;2023-07-22T08:21:23;17.85;;;8.07;;
70800;SDS011;59616;52.170;5.386;2023-07-22T08:23:50;22.23;;;7.82;;
70800;SDS011;59616;52.170;5.386;2023-07-22T08:26:17;19.77;;;7.28;;
70800;SDS011;59616;52.170;5.386;2023-07-22T08:28:47;19.48;;;7.28;;
70800;SDS011;59616;52.170;5.386;2023-07-22T08:31:15;19.25;;;7.43;;
70800;SDS011;59616;52.170;5.386;2023-07-22T08:33:42;16.85;;;6.70;;
70800;SDS011;59616;52.170;5.386;2023-07-22T08:36:10;19.65;;;7.00;;
70800;SDS011;59616;52.170;5.386;2023-07-22T08:38:37;17.15;;;7.30;;
70800;SDS011;59616;52.170;5.386;2023-07-22T08:41:04;18.35;;;7.00;;
70800;SDS011;59616;52.170;5.386;2023-07-22T08:43:31;18.00;;;6.85;;
70800;SDS011;59616;52.170;5.386;2023-07-22T08:46:01;20.30;;;7.43;;
70800;SDS011;59616;52.170;5.386;2023-07-22T08:48:32;19.10;;;7.57;;
70800;SDS011;59616;52.170;5.386;2023-07-22T08:51:06;18.58;;;7.20;;
70800;SDS011;59616;52.170;5.386;2023-07-22T08:53:34;17.80;;;6.82;;
70800;SDS011;59616;52.170;5.386;2023-07-22T08:56:01;16.90;;;6.43;;
70800;SDS011;59616;52.170;5.386;2023-07-22T08:58:29;17.48;;;6.60;;
70800;SDS011;59616;52.170;5.386;2023-07-22T09:00:56;16.48;;;6.40;;
70800;SDS011;59616;52.170;5.386;2023-07-22T09:03:24;15.55;;;6.00;;
70800;SDS011;59616;52.170;5.386;2023-07-22T09:05:51;13.85;;;5.70;;
70800;SDS011;59616;52.170;5.386;2023-07-22T09:08:19;16.00;;;5.40;;
70800;SDS011;59616;52.170;5.386;2023-07-22T09:10:47;16.40;;;5.63;;
70800;SDS011;59616;52.170;5.386;2023-07-22T09:13:15;16.65;;;5.18;;
70800;SDS011;59616;52.170;5.386;2023-07-22T09:15:42;12.20;;;4.93;;
70800;SDS011;59616;52.170;5.386;2023-07-22T09:18:10;11.20;;;4.20;;
70800;SDS011;59616;52.170;5.386;2023-07-22T09:20:37;13.68;;;4.50;;
70800;SDS011;59616;52.170;5.386;2023-07-22T09:23:04;12.55;;;4.40;;
70800;SDS011;59616;52.170;5.386;2023-07-22T09:25:40;11.38;;;4.97;;
70800;SDS011;59616;52.170;5.386;2023-07-22T09:28:07;11.23;;;4.13;;
70800;SDS011;59616;52.170;5.386;2023-07-22T09:30:37;11.45;;;4.53;;
70800;SDS011;59616;52.170;5.386;2023-07-22T09:33:06;11.80;;;4.50;;
70800;SDS011;59616;52.170;5.386;2023-07-22T09:35:47;11.65;;;4.72;;
70800;SDS011;59616;52.170;5.386;2023-07-22T09:38:24;12.38;;;4.80;;
70800;SDS011;59616;52.170;5.386;2023-07-22T09:40:52;12.95;;;4.25;;
70800;SDS011;59616;52.170;5.386;2023-07-22T09:43:21;13.00;;;5.00;;
70800;SDS011;59616;52.170;5.386;2023-07-22T09:45:48;10.90;;;4.22;;
70800;SDS011;59616;52.170;5.386;2023-07-22T09:48:16;13.55;;;4.97;;
70800;SDS011;59616;52.170;5.386;2023-07-22T09:50:43;9.65;;;4.10;;
70800;SDS011;59616;52.170;5.386;2023-07-22T09:53:14;14.60;;;5.03;;
70800;SDS011;59616;52.170;5.386;2023-07-22T09:55:42;12.50;;;4.75;;
70800;SDS011;59616;52.170;5.386;2023-07-22T09:58:10;10.85;;;4.13;;
70800;SDS011;59616;52.170;5.386;2023-07-22T10:00:40;13.07;;;4.40;;
70800;SDS011;59616;52.170;5.386;2023-07-22T10:03:10;11.95;;;4.65;;
70800;SDS011;59616;52.170;5.386;2023-07-22T10:05:40;12.05;;;4.05;;
70800;SDS011;59616;52.170;5.386;2023-07-22T10:08:08;11.48;;;4.43;;
70800;SDS011;59616;52.170;5.386;2023-07-22T10:10:37;9.18;;;3.92;;
70800;SDS011;59616;52.170;5.386;2023-07-22T10:13:05;11.85;;;4.45;;
70800;SDS011;59616;52.170;5.386;2023-07-22T10:15:33;14.02;;;5.03;;
70800;SDS011;59616;52.170;5.386;2023-07-22T10:18:01;11.80;;;5.13;;
70800;SDS011;59616;52.170;5.386;2023-07-22T10:20:29;15.38;;;4.60;;
70800;SDS011;59616;52.170;5.386;2023-07-22T10:22:57;10.82;;;3.83;;
70800;SDS011;59616;52.170;5.386;2023-07-22T10:25:25;10.55;;;3.75;;
70800;SDS011;59616;52.170;5.386;2023-07-22T10:27:52;13.80;;;3.95;;
70800;SDS011;59616;52.170;5.386;2023-07-22T10:30:20;13.07;;;3.97;;
70800;SDS011;59616;52.170;5.386;2023-07-22T10:32:48;12.52;;;3.65;;
70800;SDS011;59616;52.170;5.386;2023-07-22T10:35:17;9.48;;;3.67;;
70800;SDS011;59616;52.170;5.386;2023-07-22T10:38:06;12.20;;;3.90;;
70800;SDS011;59616;52.170;5.386;2023-07-22T10:40:47;9.75;;;3.38;;
70800;SDS011;59616;52.170;5.386;2023-07-22T10:45:52;10.63;;;3.58;;
70800;SDS011;59616;52.170;5.386;2023-07-22T10:48:21;8.35;;;3.38;;
70800;SDS011;59616;52.170;5.386;2023-07-22T10:50:49;9.15;;;3.67;;
70800;SDS011;59616;52.170;5.386;2023-07-22T11:06:32;9.90;;;3.60;;
70800;SDS011;59616;52.170;5.386;2023-07-22T11:08:59;9.85;;;3.85;;
70800;SDS011;59616;52.170;5.386;2023-07-22T11:11:34;9.68;;;3.38;;
70800;SDS011;59616;52.170;5.386;2023-07-22T11:14:18;11.32;;;3.90;;
70800;SDS011;59616;52.170;5.386;2023-07-22T11:16:47;10.10;;;4.20;;
70800;SDS011;59616;52.170;5.386;2023-07-22T11:19:15;9.88;;;4.13;;
70800;SDS011;59616;52.170;5.386;2023-07-22T11:21:44;10.90;;;3.92;;
70800;SDS011;59616;52.170;5.386;2023-07-22T11:24:12;10.25;;;3.90;;
70800;SDS011;59616;52.170;5.386;2023-07-22T11:26:39;9.35;;;4.53;;
70800;SDS011;59616;52.170;5.386;2023-07-22T11:29:10;10.02;;;4.30;;
70800;SDS011;59616;52.170;5.386;2023-07-22T11:31:40;8.93;;;4.18;;
70800;SDS011;59616;52.170;5.386;2023-07-22T11:34:12;9.93;;;4.32;;
70800;SDS011;59616;52.170;5.386;2023-07-22T11:36:40;10.60;;;3.55;;
70800;SDS011;59616;52.170;5.386;2023-07-22T11:41:35;8.52;;;3.25;;
70800;SDS011;59616;52.170;5.386;2023-07-22T11:44:03;9.68;;;3.15;;
70800;SDS011;59616;52.170;5.386;2023-07-22T11:46:35;7.55;;;2.78;;
70800;SDS011;59616;52.170;5.386;2023-07-22T11:49:03;10.32;;;3.10;;
70800;SDS011;59616;52.170;5.386;2023-07-22T11:51:30;8.25;;;3.22;;
70800;SDS011;59616;52.170;5.386;2023-07-22T11:53:59;8.52;;;2.83;;
70800;SDS011;59616;52.170;5.386;2023-07-22T11:56:27;7.72;;;2.97;;
70800;SDS011;59616;52.170;5.386;2023-07-22T11:58:55;9.13;;;2.90;;
70800;SDS011;59616;52.170;5.386;2023-07-22T12:01:23;9.52;;;2.83;;
70800;SDS011;59616;52.170;5.386;2023-07-22T12:03:55;8.65;;;3.05;;
70800;SDS011;59616;52.170;5.386;2023-07-22T12:06:25;8.88;;;3.30;;
70800;SDS011;59616;52.170;5.386;2023-07-22T12:08:52;9.40;;;3.30;;
70800;SDS011;59616;52.170;5.386;2023-07-22T12:11:21;8.93;;;3.40;;
70800;SDS011;59616;52.170;5.386;2023-07-22T12:13:49;9.50;;;3.35;;
70800;SDS011;59616;52.170;5.386;2023-07-22T12:16:30;10.45;;;3.78;;
70800;SDS011;59616;52.170;5.386;2023-07-22T12:18:58;10.40;;;3.70;;
70800;SDS011;59616;52.170;5.386;2023-07-22T12:21:25;10.10;;;3.50;;
70800;SDS011;59616;52.170;5.386;2023-07-22T12:23:54;11.48;;;4.10;;
70800;SDS011;59616;52.170;5.386;2023-07-22T12:26:21;8.93;;;3.85;;
70800;SDS011;59616;52.170;5.386;2023-07-22T12:28:49;11.73;;;3.80;;
70800;SDS011;59616;52.170;5.386;2023-07-22T12:31:16;8.80;;;3.55;;
70800;SDS011;59616;52.170;5.386;2023-07-22T12:33:43;10.27;;;3.78;;
70800;SDS011;59616;52.170;5.386;2023-07-22T12:36:11;11.30;;;3.92;;
70800;SDS011;59616;52.170;5.386;2023-07-22T12:38:39;9.20;;;3.70;;
70800;SDS011;59616;52.170;5.386;2023-07-22T12:41:06;9.15;;;3.60;;
70800;SDS011;59616;52.170;5.386;2023-07-22T12:43:33;10.23;;;3.85;;
70800;SDS011;59616;52.170;5.386;2023-07-22T12:46:00;10.40;;;3.90;;
70800;SDS011;59616;52.170;5.386;2023-07-22T12:48:28;12.30;;;4.18;;
70800;SDS011;59616;52.170;5.386;2023-07-22T12:50:55;10.38;;;4.43;;
70800;SDS011;59616;52.170;5.386;2023-07-22T12:53:22;13.18;;;4.65;;
70800;SDS011;59616;52.170;5.386;2023-07-22T12:55:50;11.30;;;4.60;;
70800;SDS011;59616;52.170;5.386;2023-07-22T12:58:17;13.38;;;4.63;;
70800;SDS011;59616;52.170;5.386;2023-07-22T13:00:44;10.95;;;5.13;;
70800;SDS011;59616;52.170;5.386;2023-07-22T13:03:11;15.15;;;5.57;;
70800;SDS011;59616;52.170;5.386;2023-07-22T13:05:39;13.27;;;4.90;;
70800;SDS011;59616;52.170;5.386;2023-07-22T13:08:06;12.18;;;5.00;;
70800;SDS011;59616;52.170;5.386;2023-07-22T13:10:34;9.82;;;4.45;;
70800;SDS011;59616;52.170;5.386;2023-07-22T13:13:03;15.75;;;5.18;;
70800;SDS011;59616;52.170;5.386;2023-07-22T13:15:32;10.57;;;4.57;;
70800;SDS011;59616;52.170;5.386;2023-07-22T13:17:59;11.00;;;4.57;;
70800;SDS011;59616;52.170;5.386;2023-07-22T13:20:26;13.18;;;5.25;;
70800;SDS011;59616;52.170;5.386;2023-07-22T13:22:54;12.25;;;4.93;;
70800;SDS011;59616;52.170;5.386;2023-07-22T13:25:21;12.27;;;5.03;;
70800;SDS011;59616;52.170;5.386;2023-07-22T13:27:49;15.32;;;4.70;;
70800;SDS011;59616;52.170;5.386;2023-07-22T13:30:16;10.25;;;4.43;;
70800;SDS011;59616;52.170;5.386;2023-07-22T13:32:43;13.68;;;4.88;;
70800;SDS011;59616;52.170;5.386;2023-07-22T13:35:11;12.23;;;4.43;;
70800;SDS011;59616;52.170;5.386;2023-07-22T13:37:38;10.50;;;4.55;;
70800;SDS011;59616;52.170;5.386;2023-07-22T13:40:05;11.35;;;4.30;;
70800;SDS011;59616;52.170;5.386;2023-07-22T13:42:36;12.95;;;4.47;;
70800;SDS011;59616;52.170;5.386;2023-07-22T13:45:04;10.50;;;4.03;;
70800;SDS011;59616;52.170;5.386;2023-07-22T13:47:32;10.07;;;3.38;;
70800;SDS011;59616;52.170;5.386;2023-07-22T13:49:59;10.07;;;2.95;;
70800;SDS011;59616;52.170;5.386;2023-07-22T13:52:26;9.93;;;3.00;;
70800;SDS011;59616;52.170;5.386;2023-07-22T13:54:54;8.93;;;3.10;;
70800;SDS011;59616;52.170;5.386;2023-07-22T13:57:21;8.38;;;3.03;;
70800;SDS011;59616;52.170;5.386;2023-07-22T13:59:48;8.48;;;2.88;;
70800;SDS011;59616;52.170;5.386;2023-07-22T14:02:16;9.52;;;2.42;;
70800;SDS011;59616;52.170;5.386;2023-07-22T14:04:43;8.23;;;2.72;;
70800;SDS011;59616;52.170;5.386;2023-07-22T14:07:10;8.57;;;2.70;;
70800;SDS011;59616;52.170;5.386;2023-07-22T14:09:38;6.75;;;2.50;;
70800;SDS011;59616;52.170;5.386;2023-07-22T14:12:05;8.90;;;2.40;;
70800;SDS011;59616;52.170;5.386;2023-07-22T14:14:32;7.45;;;2.45;;
70800;SDS011;59616;52.170;5.386;2023-07-22T14:17:00;7.03;;;2.30;;
70800;SDS011;59616;52.170;5.386;2023-07-22T14:19:27;6.60;;;2.33;;
70800;SDS011;59616;52.170;5.386;2023-07-22T14:21:54;7.07;;;2.33;;
70800;SDS011;59616;52.170;5.386;2023-07-22T14:24:22;11.38;;;2.47;;
70800;SDS011;59616;52.170;5.386;2023-07-22T14:26:49;8.45;;;2.40;;
70800;SDS011;59616;52.170;5.386;2023-07-22T14:29:16;9.15;;;2.58;;
70800;SDS011;59616;52.170;5.386;2023-07-22T14:31:43;5.85;;;2.10;;
70800;SDS011;59616;52.170;5.386;2023-07-22T14:34:10;7.97;;;2.60;;
70800;SDS011;59616;52.170;5.386;2023-07-22T14:36:38;8.85;;;2.70;;
70800;SDS011;59616;52.170;5.386;2023-07-22T14:39:05;7.90;;;2.55;;
70800;SDS011;59616;52.170;5.386;2023-07-22T14:41:32;9.63;;;2.80;;
70800;SDS011;59616;52.170;5.386;2023-07-22T14:44:00;5.70;;;2.30;;
70800;SDS011;59616;52.170;5.386;2023-07-22T14:46:27;7.55;;;2.35;;
70800;SDS011;59616;52.170;5.386;2023-07-22T14:48:54;6.18;;;2.33;;
70800;SDS011;59616;52.170;5.386;2023-07-22T14:51:21;6.68;;;2.45;;
70800;SDS011;59616;52.170;5.386;2023-07-22T14:53:48;7.63;;;2.40;;
70800;SDS011;59616;52.170;5.386;2023-07-22T14:56:16;7.05;;;2.30;;
70800;SDS011;59616;52.170;5.386;2023-07-22T14:58:43;7.43;;;2.35;;